Time;durP1;ratioP1;P1;durP2;ratioP2;P2;SDS_P1;SDS_P2;PMS_P1;PMS_P2;Temp;Humidity;BMP_temperature;BMP_pressure;BME280_temperature;BME280_humidity;BME280_pressure;Samples;Min_cycle;Max_cycle;Signal;HPM_P1;HPM_P2
2022/03/16 00:00:05;;;;;;;83.82;42.78;;;;;;;6.64;89.36;101450.48;5105410;55;1140934;-70
2022/03/16 00:05:14;;;;;;;80.85;43.90;;;;;;;6.63;89.44;101452.72;4990028;56;1140770;-70
2022/03/16 00:15:34;;;;;;;73.33;40.10;;;;;;;6.56;90.02;101454.80;5202121;54;46920;-70
2022/03/16 00:20:40;;;;;;;77.60;39.83;;;;;;;6.42;90.05;101449.29;4981916;57;1134541;-70
2022/03/16 00:25:46;;;;;;;89.47;42.53;;;;;;;6.34;90.15;101443.09;4977293;57;1140950;-70
2022/03/16 00:30:52;;;;;;;92.50;42.70;;;;;;;6.35;90.59;101436.91;5004268;56;1140802;-70
2022/03/16 00:35:57;;;;;;;81.90;44.80;;;;;;;6.40;91.14;101424.03;5111336;56;1140708;-70
2022/03/16 00:41:04;;;;;;;84.93;42.63;;;;;;;6.44;91.24;101423.80;5117289;56;1140862;-70
2022/03/16 00:46:10;;;;;;;83.33;44.23;;;;;;;6.42;90.79;101425.64;5117555;56;1138733;-70
2022/03/16 00:51:16;;;;;;;84.75;44.70;;;;;;;6.29;91.24;101428.44;5117472;56;1138693;-70
2022/03/16 00:56:22;;;;;;;80.37;40.40;;;;;;;6.30;91.09;101434.09;5117576;56;1140747;-69
2022/03/16 01:01:28;;;;;;;78.07;42.95;;;;;;;6.24;90.21;101428.67;5117252;56;1140945;-70
2022/03/16 01:06:34;;;;;;;88.27;49.38;;;;;;;6.16;90.36;101425.98;5117335;56;1140753;-70
2022/03/16 01:11:41;;;;;;;87.35;46.33;;;;;;;6.07;90.65;101434.28;5117387;56;1138698;-70
2022/03/16 01:16:47;;;;;;;91.30;45.27;;;;;;;6.00;90.96;101442.41;5107464;56;1138946;-70
2022/03/16 01:21:53;;;;;;;81.50;41.60;;;;;;;5.95;91.05;101432.59;5106305;56;1138675;-69
2022/03/16 01:27:00;;;;;;;92.97;45.73;;;;;;;5.83;90.97;101439.63;5103795;56;1138868;-70
2022/03/16 01:32:07;;;;;;;80.70;42.37;;;;;;;5.73;90.90;101445.36;5104088;56;1139245;-69
2022/03/16 01:37:13;;;;;;;92.82;44.13;;;;;;;5.68;91.05;101452.56;5103880;56;1140847;-70
2022/03/16 01:42:21;;;;;;;92.84;47.54;;;;;;;5.65;91.33;101443.08;5120678;56;1140948;-71
2022/03/16 01:47:28;;;;;;;89.97;45.28;;;;;;;5.64;91.22;101452.72;5131901;55;1141165;-69
2022/03/16 01:52:34;;;;;;;80.62;42.90;;;;;;;5.63;91.79;101456.71;5104055;56;1138992;-71
2022/03/16 01:57:43;;;;;;;78.90;41.30;;;;;;;5.53;91.33;101456.69;5104387;56;1139013;-70
2022/03/16 02:02:49;;;;;;;77.00;41.43;;;;;;;5.40;91.48;101455.48;4973427;56;1139063;-70
2022/03/16 02:07:55;;;;;;;74.97;38.37;;;;;;;5.36;91.84;101455.20;4922717;57;1138980;-70
2022/03/16 02:13:01;;;;;;;73.87;39.80;;;;;;;5.37;92.30;101456.46;4941036;58;1141017;-71
2022/03/16 02:18:07;;;;;;;81.17;42.13;;;;;;;5.46;92.78;101457.41;4940770;57;1141134;-70
2022/03/16 02:23:13;;;;;;;73.80;40.53;;;;;;;5.50;92.83;101459.46;4941014;57;1141021;-70
2022/03/16 02:28:20;;;;;;;75.90;41.40;;;;;;;5.44;92.65;101464.48;4960501;57;1138929;-72
2022/03/16 02:33:26;;;;;;;77.50;42.43;;;;;;;5.40;92.86;101469.91;4941264;58;1138794;-69
2022/03/16 02:38:32;;;;;;;83.17;42.00;;;;;;;5.36;92.83;101480.98;4940867;58;1138911;-69
2022/03/16 02:43:38;;;;;;;79.22;40.28;;;;;;;5.32;93.03;101482.50;4941061;57;1138854;-69
2022/03/16 02:48:44;;;;;;;77.50;40.03;;;;;;;5.29;92.67;101484.33;4941056;57;1138864;-70
2022/03/16 02:53:52;;;;;;;69.47;37.77;;;;;;;5.26;92.56;101479.66;4940918;58;1141133;-69
2022/03/16 02:58:57;;;;;;;78.57;42.40;;;;;;;5.31;93.17;101486.89;4940956;56;1141015;-69
2022/03/16 03:04:03;;;;;;;84.50;44.10;;;;;;;5.33;93.27;101495.56;5054904;56;1204810;-69
2022/03/16 03:09:09;;;;;;;82.00;43.90;;;;;;;5.28;93.11;101497.05;5054662;56;1154816;-70
2022/03/16 03:14:14;;;;;;;70.67;38.37;;;;;;;5.21;93.00;101498.65;5086797;55;1138862;-69
2022/03/16 03:19:22;;;;;;;79.80;40.95;;;;;;;5.09;92.66;101492.59;5158712;56;1138734;-72
2022/03/16 03:24:28;;;;;;;80.32;41.23;;;;;;;5.02;92.66;101500.31;5201919;55;1138984;-69
2022/03/16 03:29:35;;;;;;;83.60;41.57;;;;;;;5.00;92.76;101507.38;5196184;55;1140884;-70
2022/03/16 03:34:46;;;;;;;80.80;45.17;;;;;;;5.03;93.31;101501.56;5196490;55;1141177;-68
2022/03/16 03:39:49;;;;;;;85.43;43.93;;;;;;;5.01;93.70;101502.53;5204304;55;1138974;-71
2022/03/16 03:44:55;;;;;;;81.37;42.77;;;;;;;5.02;94.19;101505.55;5205966;55;1138998;-71
2022/03/16 03:50:00;;;;;;;74.03;39.27;;;;;;;5.03;94.41;101521.69;5205632;55;1140825;-70
2022/03/16 03:55:07;;;;;;;75.33;42.73;;;;;;;5.07;94.66;101515.38;5153583;55;1140915;-71
2022/03/16 04:00:13;;;;;;;76.83;42.30;;;;;;;5.13;95.15;101521.26;5175140;55;1140961;-71
2022/03/16 04:05:20;;;;;;;86.13;43.87;;;;;;;5.22;95.99;101532.69;5152126;55;1140971;-68
2022/03/16 04:10:26;;;;;;;78.83;42.87;;;;;;;5.24;96.84;101540.04;5152736;55;1139011;-70
2022/03/16 04:15:32;;;;;;;74.27;38.90;;;;;;;5.27;96.78;101543.00;5118948;56;1139056;-69
2022/03/16 04:20:38;;;;;;;71.07;37.08;;;;;;;5.35;96.48;101545.34;5111097;56;1141044;-70
2022/03/16 04:25:43;;;;;;;81.57;42.57;;;;;;;5.36;95.80;101545.25;5105408;56;1140777;-71
2022/03/16 04:30:49;;;;;;;82.90;42.93;;;;;;;5.38;95.99;101555.23;5099889;56;1140942;-71
2022/03/16 04:35:55;;;;;;;81.67;44.13;;;;;;;5.36;96.34;101557.52;5115221;55;1138773;-70
2022/03/16 04:41:04;;;;;;;70.97;39.97;;;;;;;5.32;96.34;101556.80;5112403;55;1138947;-68
2022/03/16 04:46:10;;;;;;;85.73;41.77;;;;;;;5.28;96.54;101563.93;5127228;56;1138692;-70
2022/03/16 04:51:16;;;;;;;83.33;40.10;;;;;;;5.29;96.55;101570.89;5124749;56;1140825;-70
2022/03/16 04:56:22;;;;;;;75.07;39.83;;;;;;;5.35;96.73;101577.64;5125156;56;1140826;-70
2022/03/16 05:01:28;;;;;;;86.22;44.67;;;;;;;5.39;96.88;101591.05;5116467;56;1140820;-70
2022/03/16 05:06:34;;;;;;;83.62;43.40;;;;;;;5.47;97.55;101599.94;5106068;56;1140744;-70
2022/03/16 05:11:45;;;;;;;80.35;42.70;;;;;;;5.48;97.71;101602.97;5104134;56;1138759;-69
2022/03/16 05:16:47;;;;;;;91.67;46.57;;;;;;;5.46;98.32;101618.77;5105641;56;1138743;-69
2022/03/16 05:21:53;;;;;;;79.53;44.40;;;;;;;5.48;98.45;101619.56;5105276;56;1140849;-70
2022/03/16 05:27:00;;;;;;;82.40;41.87;;;;;;;5.52;98.40;101630.31;5105888;56;1140825;-70
2022/03/16 05:32:06;;;;;;;76.67;41.83;;;;;;;5.55;98.69;101630.66;5105784;56;1140819;-69
2022/03/16 05:37:13;;;;;;;77.57;42.17;;;;;;;5.61;99.07;101636.99;5105843;56;1140776;-69
2022/03/16 05:42:19;;;;;;;88.03;47.93;;;;;;;5.64;99.47;101642.98;5105843;56;1140990;-70
2022/03/16 05:47:26;;;;;;;88.43;48.43;;;;;;;5.70;99.92;101647.57;5106282;56;1138868;-71
2022/03/16 05:52:32;;;;;;;88.63;47.47;;;;;;;5.72;100.00;101650.54;5106180;56;1138728;-70
2022/03/16 05:57:39;;;;;;;78.20;46.27;;;;;;;5.77;99.98;101656.47;5105962;57;1142950;-71
2022/03/16 06:02:46;;;;;;;81.47;46.63;;;;;;;5.83;100.00;101661.46;5122209;56;1140908;-70
2022/03/16 06:07:54;;;;;;;81.63;49.10;;;;;;;5.95;100.00;101670.22;5126827;56;1142831;-69
2022/03/16 06:13:06;;;;;;;86.23;51.13;;;;;;;6.03;100.00;101683.48;5128351;56;1143098;-71
2022/03/16 06:18:12;;;;;;;87.57;50.97;;;;;;;6.02;100.00;101685.71;5124041;56;1140921;-70
2022/03/16 06:23:19;;;;;;;87.90;49.50;;;;;;;6.02;100.00;101698.84;5153075;55;1140883;-69
2022/03/16 06:28:25;;;;;;;111.27;54.60;;;;;;;6.02;100.00;101708.03;5196880;55;1143046;-71
2022/03/16 06:33:31;;;;;;;96.63;53.40;;;;;;;6.08;100.00;101711.28;5202817;55;1145069;-70
2022/03/16 06:38:37;;;;;;;96.97;52.33;;;;;;;6.10;100.00;101716.48;5205679;55;1143343;-70
2022/03/16 06:43:42;;;;;;;89.53;50.93;;;;;;;6.07;100.00;101719.22;5205765;55;1143172;-69
2022/03/16 06:48:48;;;;;;;87.87;49.80;;;;;;;6.06;100.00;101717.50;5204157;55;1141115;-70
2022/03/16 06:53:54;;;;;;;84.27;48.47;;;;;;;6.05;100.00;101726.30;5204176;55;1142894;-69
2022/03/16 06:59:00;;;;;;;81.37;48.30;;;;;;;6.09;100.00;101730.52;5203439;55;1142927;-70
2022/03/16 07:04:06;;;;;;;89.07;50.33;;;;;;;6.16;100.00;101736.77;5118388;56;1143054;-70
2022/03/16 07:09:12;;;;;;;91.23;50.87;;;;;;;6.18;100.00;101740.20;5118278;56;1143237;-70
2022/03/16 07:14:33;;;;;;;87.27;49.87;;;;;;;6.21;100.00;101741.39;5117272;56;1143092;-70
2022/03/16 07:19:39;;;;;;;82.92;47.25;;;;;;;6.19;100.00;101743.22;5117963;56;1143216;-70
2022/03/16 07:24:45;;;;;;;84.63;52.23;;;;;;;6.22;100.00;101751.44;5115665;56;1143087;-70
2022/03/16 07:29:50;;;;;;;90.37;53.47;;;;;;;6.30;100.00;101756.77;5105222;56;1143178;-70
2022/03/16 07:34:56;;;;;;;84.32;50.85;;;;;;;6.33;100.00;101767.62;5105081;56;1143100;-72
2022/03/16 07:40:02;;;;;;;90.70;51.97;;;;;;;6.32;100.00;101769.39;5105500;56;1141200;-70
2022/03/16 07:45:10;;;;;;;90.67;48.40;;;;;;;6.30;100.00;101784.36;5104985;56;1142955;-69
2022/03/16 07:50:16;;;;;;;103.10;53.67;;;;;;;6.30;100.00;101781.73;5105210;56;1142956;-70
2022/03/16 07:55:22;;;;;;;104.53;57.93;;;;;;;6.35;100.00;101790.30;5104694;56;1145071;-70
2022/03/16 08:00:28;;;;;;;95.07;52.70;;;;;;;6.40;100.00;101801.95;5083607;56;1145389;-70
2022/03/16 08:05:34;;;;;;;90.83;50.57;;;;;;;6.43;100.00;101800.95;5117714;55;1141147;-69
2022/03/16 08:10:40;;;;;;;96.20;52.70;;;;;;;6.44;100.00;101806.14;5116900;56;1143154;-70
2022/03/16 08:15:46;;;;;;;85.47;49.87;;;;;;;6.58;100.00;101830.56;5116992;56;1143319;-70
2022/03/16 08:20:52;;;;;;;90.63;51.20;;;;;;;6.68;100.00;101827.52;5123567;56;1143303;-70
2022/03/16 08:25:58;;;;;;;68.30;38.47;;;;;;;6.80;100.00;101839.30;5132958;55;1143385;-70
2022/03/16 08:31:04;;;;;;;88.67;51.57;;;;;;;6.85;100.00;101835.17;5203006;55;1258776;-69
2022/03/16 08:36:11;;;;;;;85.67;50.90;;;;;;;6.95;100.00;101843.93;5205185;55;1142975;-71
2022/03/16 08:41:16;;;;;;;94.10;53.23;;;;;;;7.10;100.00;101844.20;5205466;55;1143147;-71
2022/03/16 08:46:22;;;;;;;86.80;50.83;;;;;;;7.23;100.00;101834.41;5205250;55;1143387;-71
2022/03/16 08:51:28;;;;;;;78.23;41.70;;;;;;;7.39;100.00;101841.19;5208497;55;1142971;-72
2022/03/16 08:56:35;;;;;;;78.17;47.17;;;;;;;7.69;100.00;101840.30;5203999;55;1142991;-71
2022/03/16 09:01:41;;;;;;;76.37;44.53;;;;;;;8.06;100.00;101839.05;5156806;55;1143053;-71
2022/03/16 09:06:48;;;;;;;77.53;45.10;;;;;;;8.43;100.00;101843.93;5117275;55;1142874;-71
2022/03/16 09:11:54;;;;;;;83.37;41.87;;;;;;;8.77;100.00;101845.80;5117274;56;1142900;-70
2022/03/16 09:16:59;;;;;;;77.57;49.03;;;;;;;8.96;100.00;101842.66;5147850;55;1143033;-71
2022/03/16 09:22:05;;;;;;;67.83;43.27;;;;;;;9.24;100.00;101853.99;5010278;58;1142961;-71
2022/03/16 09:27:12;;;;;;;70.95;45.28;;;;;;;9.64;100.00;101855.42;5092263;56;1143290;-71
2022/03/16 09:32:21;;;;;;;66.90;43.90;;;;;;;9.97;97.47;101860.71;4955246;57;1143016;-72
2022/03/16 09:37:26;;;;;;;63.70;39.23;;;;;;;10.21;96.45;101859.91;5105346;56;1140993;-71
2022/03/16 09:42:33;;;;;;;75.83;44.90;;;;;;;10.44;95.10;101859.94;5105083;56;1143242;-71
2022/03/16 09:47:39;;;;;;;72.37;43.50;;;;;;;10.62;93.26;101856.27;5105476;55;1143175;-71
2022/03/16 09:52:48;;;;;;;67.73;42.70;;;;;;;10.78;88.87;101848.31;5109702;56;1143041;-71
2022/03/16 09:57:53;;;;;;;59.97;36.90;;;;;;;10.91;90.43;101858.11;5104802;56;1142856;-71
2022/03/16 10:03:04;;;;;;;56.60;37.30;;;;;;;11.13;90.23;101855.55;4995895;56;1143446;-71
2022/03/16 10:08:11;;;;;;;60.37;36.63;;;;;;;11.25;89.65;101856.14;4957671;57;1142963;-71
2022/03/16 10:13:19;;;;;;;69.92;41.20;;;;;;;11.46;86.29;101857.50;5018031;57;1142825;-70
2022/03/16 10:18:25;;;;;;;68.37;41.83;;;;;;;11.61;86.69;101867.17;5021584;57;1142776;-71
2022/03/16 10:23:31;;;;;;;68.93;44.03;;;;;;;11.70;84.71;101856.50;5024273;57;1142995;-71
2022/03/16 10:28:38;;;;;;;56.73;36.70;;;;;;;11.74;85.42;101846.58;5065875;56;1143060;-71
2022/03/16 10:33:58;;;;;;;56.63;35.07;;;;;;;12.01;84.29;101855.97;5137392;55;1142879;-71
2022/03/16 10:39:02;;;;;;;52.20;33.83;;;;;;;12.21;83.43;101858.23;5203440;55;1143060;-71
2022/03/16 10:49:43;;;;;;;33.88;23.18;;;;;;;12.57;80.28;101865.63;5204907;55;1143050;-71
2022/03/16 10:54:49;;;;;;;45.73;31.12;;;;;;;12.64;74.06;101866.48;5204665;55;1143081;-71
2022/03/16 10:59:55;;;;;;;39.77;25.63;;;;;;;12.78;75.47;101860.75;5204274;55;1143034;-70
2022/03/16 11:05:01;;;;;;;42.83;27.65;;;;;;;12.84;71.53;101855.86;5204353;55;1142996;-71
2022/03/16 11:10:08;;;;;;;48.00;32.30;;;;;;;12.84;69.87;101857.67;5204204;55;1143210;-72
2022/03/16 11:15:15;;;;;;;45.63;31.23;;;;;;;12.86;72.51;101858.42;5084708;55;1142905;-71
2022/03/16 11:20:22;;;;;;;42.13;26.27;;;;;;;12.76;71.38;101865.30;5065501;56;1143393;-70
2022/03/16 11:25:33;;;;;;;41.87;28.13;;;;;;;12.89;72.38;101862.20;5105550;56;1143011;-69
2022/03/16 11:30:39;;;;;;;34.27;24.95;;;;;;;12.83;71.46;101863.45;5038125;55;1142945;-68
2022/03/16 11:35:50;;;;;;;32.03;22.60;;;;;;;12.85;70.38;101869.52;5111899;55;1143034;-69
2022/03/16 11:40:56;;;;;;;34.07;24.00;;;;;;;13.18;68.87;101865.61;5126780;56;1143179;-69
2022/03/16 11:46:02;;;;;;;39.13;25.13;;;;;;;13.18;66.20;101870.93;5126564;56;1143050;-71
2022/03/16 11:51:17;;;;;;;42.60;22.03;;;;;;;13.30;66.02;101863.45;5126691;56;1143017;-70
2022/03/16 11:56:45;;;;;;;46.92;26.50;;;;;;;13.28;65.41;101864.06;5124865;56;1143344;-71
2022/03/16 12:01:57;;;;;;;38.03;24.47;;;;;;;13.22;66.96;101877.27;5126477;56;1143101;-69
2022/03/16 12:07:08;;;;;;;45.63;21.60;;;;;;;13.47;65.13;101871.61;5126483;56;1143210;-69
2022/03/16 12:18:14;;;;;;;31.97;21.68;;;;;;;13.69;62.84;101871.86;5035997;56;1143080;-70
2022/03/16 12:23:19;;;;;;;32.28;21.48;;;;;;;13.69;63.22;101863.88;5087991;56;1143233;-70
2022/03/16 12:33:55;;;;;;;40.52;22.22;;;;;;;13.99;59.08;101865.73;5104801;56;1143018;-71
2022/03/16 12:39:07;;;;;;;34.90;24.30;;;;;;;14.11;59.02;101867.99;5104828;57;1142985;-70
2022/03/16 12:44:17;;;;;;;27.57;20.90;;;;;;;14.19;58.89;101872.78;5113989;56;1143026;-70
2022/03/16 12:49:24;;;;;;;37.67;23.93;;;;;;;14.47;60.65;101862.37;5104712;56;1143006;-70
2022/03/16 12:54:36;;;;;;;36.57;24.77;;;;;;;14.43;57.52;101867.91;5104836;56;1143164;-70
2022/03/16 12:59:49;;;;;;;40.73;24.50;;;;;;;14.07;57.22;101870.48;5092001;56;1143200;-71
2022/03/16 13:04:57;;;;;;;33.90;24.67;;;;;;;14.07;59.73;101877.14;5104667;57;1143249;-70
2022/03/16 13:10:04;;;;;;;38.87;24.50;;;;;;;14.35;59.84;101868.92;5090633;56;1143322;-70
2022/03/16 13:15:10;;;;;;;36.73;25.13;;;;;;;14.58;59.00;101882.39;4878477;58;1143109;-70
2022/03/16 13:20:24;;;;;;;44.57;22.10;;;;;;;14.65;55.09;101887.66;5023884;57;1143256;-71
2022/03/16 13:25:29;;;;;;;36.83;25.67;;;;;;;14.39;54.07;101889.48;5048473;57;1142943;-70
2022/03/16 13:30:37;;;;;;;38.20;24.60;;;;;;;14.30;53.89;101877.70;5117375;56;1143185;-72
2022/03/16 13:35:43;;;;;;;30.88;23.73;;;;;;;14.40;55.64;101888.08;5105251;56;1143251;-72
2022/03/16 13:40:52;;;;;;;51.10;25.60;;;;;;;14.18;54.78;101893.22;5144266;55;1142991;-71
2022/03/16 13:45:57;;;;;;;30.93;22.73;;;;;;;14.14;56.36;101889.55;5039519;56;1143251;-72
2022/03/16 13:51:06;;;;;;;38.07;22.97;;;;;;;14.29;55.97;101897.29;5181959;55;1143326;-72
2022/03/16 13:56:18;;;;;;;71.80;36.37;;;;;;;14.41;55.68;101903.58;5180639;55;1143106;-72
2022/03/16 14:01:39;;;;;;;44.67;29.40;;;;;;;14.37;53.91;101908.23;5156338;55;1143289;-72
2022/03/16 14:06:47;;;;;;;44.43;26.90;;;;;;;14.37;53.82;101900.72;5070483;55;1148342;-72
2022/03/16 14:11:55;;;;;;;38.78;26.77;;;;;;;14.38;54.66;101902.42;5094393;56;1143268;-73
2022/03/16 14:17:04;;;;;;;38.20;26.83;;;;;;;14.48;54.42;101915.98;5094117;56;1143214;-72
2022/03/16 14:22:12;;;;;;;43.90;29.90;;;;;;;14.38;54.50;101911.26;5094236;56;1143385;-72
2022/03/16 14:27:26;;;;;;;44.87;28.50;;;;;;;14.15;51.41;101904.08;4971579;58;1143410;-72
2022/03/16 14:32:25;;;;;;;70.40;28.40;;;;;;;14.10;53.36;101906.20;4941741;58;1143314;-72
2022/03/16 14:37:31;;;;;;;40.23;27.73;;;;;;;14.17;54.65;101917.27;4943906;58;1143428;-71
2022/03/16 14:42:37;;;;;;;35.30;24.07;;;;;;;14.24;54.96;101923.38;4944511;58;1143100;-72
2022/03/16 14:47:44;;;;;;;37.27;26.13;;;;;;;14.30;55.08;101928.75;4954971;58;1143016;-71
2022/03/16 14:52:52;;;;;;;40.98;23.30;;;;;;;14.19;54.90;101926.00;5007059;57;1143251;-72
2022/03/16 14:58:01;;;;;;;42.70;26.90;;;;;;;14.14;55.97;101930.31;5036252;56;1143607;-71
2022/03/16 15:03:08;;;;;;;57.40;29.07;;;;;;;14.19;56.49;101925.52;5042987;56;1143200;-72
2022/03/16 15:08:13;;;;;;;115.50;68.70;;;;;;;14.15;55.55;101922.70;5081107;56;1142976;-72
2022/03/16 15:13:19;;;;;;;35.13;26.10;;;;;;;14.11;55.95;101925.20;5064909;56;1145150;-71
2022/03/16 15:18:24;;;;;;;57.53;33.07;;;;;;;14.14;55.37;101925.47;5104224;56;1143043;-70
2022/03/16 15:23:30;;;;;;;37.63;22.70;;;;;;;14.10;54.71;101927.48;5073541;56;1142889;-71
2022/03/16 15:28:36;;;;;;;45.03;23.30;;;;;;;13.97;52.66;101927.97;5037223;56;1143126;-72
2022/03/16 15:33:42;;;;;;;38.07;23.13;;;;;;;13.74;54.03;101933.56;5080432;56;1152733;-71
2022/03/16 15:38:47;;;;;;;46.00;24.67;;;;;;;13.53;55.00;101938.52;5042794;56;1143112;-70
2022/03/16 15:43:53;;;;;;;54.90;30.00;;;;;;;13.23;55.59;101943.22;4917296;58;1143110;-71
2022/03/16 15:49:02;;;;;;;48.30;27.15;;;;;;;12.91;57.02;101943.48;4919659;58;1143123;-70
2022/03/16 15:54:08;;;;;;;53.70;32.50;;;;;;;12.70;58.62;101950.16;4933493;58;1142932;-71
2022/03/16 15:59:14;;;;;;;59.77;33.03;;;;;;;12.56;59.83;101948.37;4976748;58;1143544;-70
2022/03/16 16:04:19;;;;;;;60.17;33.27;;;;;;;12.47;60.68;101950.30;4937695;58;1143082;-71
2022/03/16 16:09:29;;;;;;;71.73;31.73;;;;;;;12.41;61.23;101957.77;4929974;58;1142897;-70
2022/03/16 16:14:34;;;;;;;64.70;33.27;;;;;;;12.31;61.76;101958.36;4993093;57;1142950;-70
2022/03/16 16:19:41;;;;;;;50.07;29.97;;;;;;;12.23;62.40;101955.78;4959766;58;1142846;-71
2022/03/16 16:24:46;;;;;;;61.68;33.80;;;;;;;12.13;62.93;101959.48;4897067;58;1142993;-71
2022/03/16 16:29:51;;;;;;;70.22;38.58;;;;;;;12.02;63.38;101972.55;4905156;58;1143167;-71
2022/03/16 16:34:59;;;;;;;89.23;52.10;;;;;;;11.96;63.79;101979.07;4907593;58;1142993;-71
2022/03/16 16:40:05;;;;;;;80.67;42.23;;;;;;;11.89;64.06;101972.92;4881909;58;1143323;-71
2022/03/16 16:45:14;;;;;;;51.30;30.63;;;;;;;11.79;64.23;101980.55;4903946;57;1143172;-72
2022/03/16 16:50:20;;;;;;;50.38;31.02;;;;;;;11.63;64.45;101987.66;5127948;56;1143753;-71
2022/03/16 16:55:27;;;;;;;54.60;31.43;;;;;;;11.36;65.20;102003.36;5121651;55;1142961;-72
2022/03/16 17:00:35;;;;;;;60.23;31.53;;;;;;;11.19;65.92;102006.97;5115981;56;1143310;-72
2022/03/16 17:05:41;;;;;;;62.37;34.50;;;;;;;11.12;66.42;102012.71;5114542;55;1143297;-71
2022/03/16 17:10:49;;;;;;;59.63;33.75;;;;;;;11.03;66.85;102022.00;5117638;55;1143141;-71
2022/03/16 17:15:59;;;;;;;93.23;47.73;;;;;;;10.97;67.18;102029.45;5112064;55;1143226;-71
2022/03/16 17:21:07;;;;;;;103.33;48.87;;;;;;;10.85;67.24;102034.92;5118284;55;1143480;-71
2022/03/16 17:26:13;;;;;;;49.93;31.77;;;;;;;10.76;67.46;102033.64;5117874;56;1145173;-71
2022/03/16 17:31:18;;;;;;;63.10;33.93;;;;;;;10.67;67.83;102046.06;5112883;55;1143049;-72
2022/03/16 17:36:24;;;;;;;70.47;32.97;;;;;;;10.57;68.06;102047.47;5123083;56;1143060;-71
2022/03/16 17:46:52;;;;;;;;;;;;;;;10.39;68.75;102053.75;5151222;55;1143077;-71
2022/03/16 17:51:58;;;;;;;55.73;25.47;;;;;;;10.27;69.27;102060.52;5138970;55;976130;-71
2022/03/16 17:57:04;;;;;;;48.40;27.53;;;;;;;10.16;69.44;102061.50;5118088;56;1140927;-71
2022/03/16 18:02:10;;;;;;;50.03;30.13;;;;;;;10.03;69.74;102062.61;5126180;55;1143401;-71
2022/03/16 18:07:16;;;;;;;47.73;29.13;;;;;;;9.96;69.96;102059.01;5136908;55;1143158;-70
2022/03/16 18:17:48;;;;;;;60.50;31.83;;;;;;;9.93;70.06;102078.52;4956353;58;1141352;-70
2022/03/16 18:22:54;;;;;;;66.80;35.43;;;;;;;9.86;70.36;102079.77;4954223;58;1141352;-71
2022/03/16 18:28:00;;;;;;;49.27;28.67;;;;;;;9.80;70.41;102073.45;4954995;57;1141081;-71
2022/03/16 18:33:07;;;;;;;39.20;25.63;;;;;;;9.59;70.35;102079.34;4955170;57;1139016;-70
2022/03/16 18:38:13;;;;;;;41.33;25.20;;;;;;;9.42;70.99;102085.44;4951347;57;1139120;-71
2022/03/16 18:43:21;;;;;;;50.07;27.33;;;;;;;9.27;71.70;102099.83;4955114;57;1139115;-70
2022/03/16 18:48:27;;;;;;;41.30;27.90;;;;;;;9.17;72.05;102094.10;5061784;55;1138930;-71
2022/03/16 18:53:33;;;;;;;46.23;27.33;;;;;;;9.08;71.98;102105.10;5204816;55;1139180;-71
2022/03/16 18:58:40;;;;;;;51.90;27.50;;;;;;;9.08;71.98;102105.10;5180026;55;1139082;-73
2022/03/16 19:03:45;;;;;;;50.58;27.52;;;;;;;9.02;72.18;102108.87;5205714;55;1138875;-71
2022/03/16 19:08:53;;;;;;;42.85;22.87;;;;;;;8.97;72.63;102114.84;5205777;55;1140917;-71
2022/03/16 19:13:59;;;;;;;46.70;26.10;;;;;;;9.01;72.49;102115.56;5205497;55;1140783;-71
2022/03/16 19:19:06;;;;;;;43.87;26.03;;;;;;;8.91;72.69;102112.46;5205368;55;1140842;-71
2022/03/16 19:24:12;;;;;;;59.67;27.70;;;;;;;8.83;72.94;102117.70;5195526;55;1255244;-71
2022/03/16 19:29:22;;;;;;;52.17;29.13;;;;;;;8.70;73.37;102116.94;5146752;55;1140869;-71
2022/03/16 19:34:28;;;;;;;50.47;28.67;;;;;;;8.50;73.75;102122.22;5163648;55;1138878;-71
2022/03/16 19:39:34;;;;;;;53.33;30.67;;;;;;;8.28;74.70;102116.97;5201177;55;1138771;-71
2022/03/16 19:44:40;;;;;;;50.15;27.60;;;;;;;8.14;75.47;102120.65;5161093;55;1138944;-71
2022/03/16 19:49:46;;;;;;;55.90;28.90;;;;;;;7.98;76.08;102121.74;5199733;55;1141006;-70
2022/03/16 19:54:52;;;;;;;53.40;28.73;;;;;;;7.90;77.12;102121.22;5186971;55;1140893;-71
2022/03/16 19:59:59;;;;;;;44.73;25.37;;;;;;;7.75;77.87;102115.25;5049070;57;1138697;-70
2022/03/16 20:05:05;;;;;;;49.20;28.10;;;;;;;7.61;78.65;102122.39;5068016;57;1138989;-71
2022/03/16 20:10:11;;;;;;;51.47;28.90;;;;;;;7.59;78.91;102121.59;5010658;58;1141035;-71
2022/03/16 20:15:17;;;;;;;61.27;33.83;;;;;;;7.52;79.20;102123.20;5010909;57;1140797;-70
2022/03/16 20:20:23;;;;;;;52.00;29.47;;;;;;;7.44;79.48;102123.51;4987103;58;1138888;-71
2022/03/16 20:25:30;;;;;;;56.63;30.20;;;;;;;7.38;80.22;102126.37;5009201;57;1138993;-70
2022/03/16 20:30:37;;;;;;;58.98;32.70;;;;;;;7.32;80.10;102134.06;4946853;57;1140873;-72
2022/03/16 20:35:43;;;;;;;61.13;31.53;;;;;;;7.29;80.63;102131.54;5034626;57;1141011;-71
2022/03/16 20:40:48;;;;;;;61.47;34.80;;;;;;;7.12;81.25;102125.20;4953337;57;1138786;-71
2022/03/16 20:45:54;;;;;;;71.17;38.70;;;;;;;6.92;82.13;102118.89;5045731;57;1141113;-71
2022/03/16 20:51:00;;;;;;;63.53;34.97;;;;;;;6.84;83.03;102120.96;5044771;57;1141396;-71
2022/03/16 20:56:06;;;;;;;70.90;37.75;;;;;;;6.78;82.89;102126.89;4925290;59;1138869;-71
2022/03/16 21:01:14;;;;;;;69.63;36.30;;;;;;;6.70;82.89;102137.24;4901580;59;1141058;-70
2022/03/16 21:06:20;;;;;;;53.47;30.43;;;;;;;6.72;82.85;102142.91;4930386;59;1141088;-72
2022/03/16 21:11:26;;;;;;;77.50;38.00;;;;;;;6.69;83.08;102145.18;4975796;58;1140937;-72
2022/03/16 21:16:31;;;;;;;74.00;39.60;;;;;;;6.62;82.94;102147.16;5006923;58;1138838;-72
2022/03/16 21:21:39;;;;;;;65.43;37.73;;;;;;;6.55;83.02;102161.44;4996072;57;1138729;-71
2022/03/16 21:26:47;;;;;;;84.10;42.13;;;;;;;6.54;83.42;102166.75;4939538;58;1141334;-69
2022/03/16 21:31:52;;;;;;;85.37;42.20;;;;;;;6.48;83.46;102164.31;4851562;59;1150481;-71
2022/03/16 21:36:59;;;;;;;72.22;41.20;;;;;;;6.48;83.71;102166.48;4926802;58;1138830;-72
2022/03/16 21:47:28;;;;;;;;;;;;;;;6.34;83.26;102156.45;4930357;58;1139073;-72
2022/03/16 21:52:34;;;;;;;74.47;38.83;;;;;;;6.26;83.55;102164.20;4942950;58;974050;-71
2022/03/16 21:57:39;;;;;;;84.67;43.93;;;;;;;6.28;83.71;102160.59;4926630;58;1138892;-71
2022/03/16 22:02:45;;;;;;;89.87;46.30;;;;;;;6.26;84.08;102163.72;4926805;58;1150488;-71
